createdAt,value
2022-08-04T00:02:36.883Z,19.961548
2022-08-04T00:06:02.201Z,19.840698
2022-08-04T00:09:27.516Z,19.830627
2022-08-04T00:12:52.840Z,19.780273
2022-08-04T00:16:18.153Z,19.770203
2022-08-04T00:19:43.487Z,19.830627
2022-08-04T00:23:08.797Z,19.830627
2022-08-04T00:26:34.091Z,19.840698
2022-08-04T00:29:59.393Z,19.800415
2022-08-04T00:33:24.694Z,19.770203
2022-08-04T00:36:50.018Z,19.588928
2022-08-04T00:40:15.381Z,19.427795
2022-08-04T00:43:40.688Z,19.468079
2022-08-04T00:47:05.971Z,19.588928
2022-08-04T00:50:31.281Z,19.538574
2022-08-04T00:53:56.609Z,19.478149
2022-08-04T00:57:28.509Z,19.458008
2022-08-04T01:00:47.248Z,19.397583
2022-08-04T01:04:12.581Z,19.397583
2022-08-04T01:07:37.873Z,19.387512
2022-08-04T01:11:03.186Z,19.367371
2022-08-04T01:14:28.499Z,19.427795
2022-08-04T01:17:53.812Z,19.468079
2022-08-04T01:21:19.145Z,19.538574
2022-08-04T01:24:44.465Z,19.619141
2022-08-04T01:28:09.780Z,19.619141
2022-08-04T01:31:35.105Z,19.649353
2022-08-04T01:35:00.394Z,19.588928
2022-08-04T01:38:25.738Z,19.578857
2022-08-04T01:41:57.664Z,19.558716
2022-08-04T01:45:16.374Z,19.468079
2022-08-04T01:48:41.703Z,19.407654
2022-08-04T01:52:07.009Z,19.387512
2022-08-04T01:55:52.242Z,19.306946
2022-08-04T01:58:57.654Z,19.226379
2022-08-04T02:02:23.121Z,19.186096
2022-08-04T02:06:02.709Z,19.10553
2022-08-04T02:09:13.628Z,19.10553
2022-08-04T02:12:38.975Z,19.065247
2022-08-04T02:16:04.317Z,19.055176
2022-08-04T02:19:29.689Z,19.095459
2022-08-04T02:22:55.034Z,19.155884
2022-08-04T02:26:22.454Z,19.216309
2022-08-04T02:29:45.696Z,19.286804
2022-08-04T02:33:10.984Z,19.387512
2022-08-04T02:36:36.322Z,19.437866
2022-08-04T02:40:01.640Z,19.468079
2022-08-04T02:43:50.475Z,19.458008
2022-08-04T02:46:52.302Z,19.468079
2022-08-04T02:50:25.354Z,19.478149
2022-08-04T02:53:42.922Z,19.538574
2022-08-04T02:57:08.317Z,19.478149
2022-08-04T03:00:33.570Z,19.458008
2022-08-04T03:03:58.904Z,19.498291
2022-08-04T03:07:24.297Z,19.468079
2022-08-04T03:10:49.573Z,19.498291
2022-08-04T03:14:14.896Z,19.458008
2022-08-04T03:17:52.809Z,19.397583
2022-08-04T03:21:05.501Z,19.317017
2022-08-04T03:24:30.846Z,19.306946
2022-08-04T03:27:56.193Z,19.306946
2022-08-04T03:31:21.504Z,19.317017
2022-08-04T03:34:46.846Z,19.246521
2022-08-04T03:38:12.165Z,19.135742
2022-08-04T03:41:51.073Z,19.024963
2022-08-04T03:45:02.829Z,18.904114
2022-08-04T03:48:28.175Z,18.813477
2022-08-04T03:51:53.520Z,18.763123
2022-08-04T03:55:18.871Z,18.783264
2022-08-04T03:58:44.195Z,18.813477
2022-08-04T04:02:09.612Z,18.753052
2022-08-04T04:05:40.377Z,18.73291
2022-08-04T04:09:00.220Z,18.73291
2022-08-04T04:12:25.546Z,18.813477
2022-08-04T04:15:51.590Z,18.904114
2022-08-04T04:19:16.907Z,19.024963
2022-08-04T04:22:42.251Z,19.155884
2022-08-04T04:26:07.597Z,19.397583
2022-08-04T04:29:32.940Z,19.649353
2022-08-04T04:32:58.253Z,19.911194
2022-08-04T04:36:23.601Z,20.052185
2022-08-04T04:39:48.931Z,20.162964
2022-08-04T04:43:14.268Z,20.183105
2022-08-04T04:46:39.588Z,20.173035
2022-08-04T04:50:04.935Z,20.173035
2022-08-04T04:53:30.256Z,20.314026
2022-08-04T04:56:55.589Z,20.515442
2022-08-04T05:00:20.920Z,20.86792
2022-08-04T05:03:46.275Z,21.311035
2022-08-04T05:07:11.632Z,21.864929
2022-08-04T05:10:37.065Z,22.368469
2022-08-04T05:14:33.987Z,22.75116
2022-08-04T05:17:27.909Z,22.88208
2022-08-04T05:20:53.230Z,22.912292
2022-08-04T05:24:18.580Z,22.861938
2022-08-04T05:27:43.898Z,22.861938
2022-08-04T05:31:09.246Z,22.831726
2022-08-04T05:34:34.591Z,22.902222
2022-08-04T05:38:01.466Z,22.972717
2022-08-04T05:41:32.204Z,23.073425
2022-08-04T05:44:51.344Z,23.164062
2022-08-04T05:48:15.926Z,23.284912
2022-08-04T05:51:41.287Z,23.415833
2022-08-04T05:55:06.617Z,23.607178
2022-08-04T05:58:32.002Z,23.788452
2022-08-04T06:01:57.893Z,23.979797
2022-08-04T06:05:22.704Z,24.151001
2022-08-04T06:08:48.023Z,24.372559
2022-08-04T06:12:13.356Z,24.523621
2022-08-04T06:15:38.679Z,24.725037
2022-08-04T06:19:58.197Z,24.956665
2022-08-04T06:22:29.344Z,25.178223
2022-08-04T06:25:54.669Z,25.359497
2022-08-04T06:29:20.005Z,25.470276
2022-08-04T06:32:45.305Z,25.550842
2022-08-04T06:36:10.640Z,25.611267
2022-08-04T06:39:36.013Z,25.611267
2022-08-04T06:43:01.330Z,25.691833
2022-08-04T06:46:26.673Z,25.65155
2022-08-04T06:51:22.962Z,25.601196
2022-08-04T06:53:17.348Z,25.550842
2022-08-04T06:56:42.669Z,25.601196
2022-08-04T07:00:08.047Z,25.621338
2022-08-04T07:03:33.406Z,25.722046
2022-08-04T07:06:58.731Z,25.722046
2022-08-04T07:10:24.101Z,25.732117
2022-08-04T07:13:49.410Z,25.792542
2022-08-04T07:17:14.720Z,25.873108
2022-08-04T07:20:40.042Z,25.913391
2022-08-04T07:24:05.352Z,25.983887
2022-08-04T07:27:47.139Z,26.074524
2022-08-04T07:30:55.961Z,26.165161
2022-08-04T07:34:22.179Z,26.286011
2022-08-04T07:37:46.603Z,26.356506
2022-08-04T07:44:37.265Z,26.618347
2022-08-04T07:48:04.517Z,26.698914
2022-08-04T07:51:27.910Z,26.9104
2022-08-04T07:54:53.252Z,27.041321
2022-08-04T07:58:18.562Z,27.172241
2022-08-04T08:01:43.877Z,27.252808
2022-08-04T08:05:09.247Z,27.293091
2022-08-04T08:08:34.577Z,27.252808
2022-08-04T08:12:35.015Z,27.272949
2022-08-04T08:15:25.226Z,27.373657
2022-08-04T08:18:50.568Z,27.434082
2022-08-04T08:22:15.894Z,27.444153
2022-08-04T08:25:41.237Z,27.434082
2022-08-04T08:29:06.566Z,27.434082
2022-08-04T08:32:31.883Z,27.494507
2022-08-04T08:35:57.231Z,27.494507
2022-08-04T08:39:24.688Z,27.645569
2022-08-04T08:42:47.892Z,27.806702
2022-08-04T08:46:13.216Z,27.867126
2022-08-04T08:50:00.063Z,27.897339
2022-08-04T08:53:03.968Z,27.987976
2022-08-04T08:56:30.878Z,28.058472
2022-08-04T08:59:54.639Z,28.108826
2022-08-04T09:03:19.967Z,28.118896
2022-08-04T09:06:45.287Z,28.058472
2022-08-04T09:10:10.644Z,28.018188
2022-08-04T09:13:35.968Z,28.139038
2022-08-04T09:17:01.288Z,28.219604
2022-08-04T09:20:26.640Z,28.269958
2022-08-04T09:23:51.962Z,28.209534
2022-08-04T09:27:17.288Z,28.249817
2022-08-04T09:30:42.645Z,28.239746
2022-08-04T09:34:07.998Z,28.209534
2022-08-04T09:37:33.326Z,28.2901
2022-08-04T09:40:59.324Z,28.511658
2022-08-04T09:44:43.390Z,28.622437
2022-08-04T09:47:49.985Z,28.682861
2022-08-04T09:51:15.302Z,28.703003
2022-08-04T09:54:40.660Z,28.854065
2022-08-04T09:58:05.984Z,28.954773
2022-08-04T10:01:32.285Z,28.964844
2022-08-04T10:04:57.617Z,29.186401
2022-08-04T10:08:22.950Z,29.236755
2022-08-04T10:11:54.598Z,29.337463
2022-08-04T10:15:13.629Z,29.458313
2022-08-04T10:18:39.035Z,29.488525
2022-08-04T10:22:29.392Z,29.599304
2022-08-04T10:25:37.221Z,29.700012
2022-08-04T10:28:55.978Z,29.710083
2022-08-04T10:32:21.383Z,29.780579
2022-08-04T10:35:46.693Z,29.80072
2022-08-04T10:39:13.738Z,29.861145
2022-08-04T10:42:37.381Z,30.022278
2022-08-04T10:46:02.711Z,30.193481
2022-08-04T10:49:28.044Z,30.344543
2022-08-04T10:52:53.374Z,30.415039
2022-08-04T10:56:18.710Z,30.42511
2022-08-04T10:59:44.539Z,30.263977
2022-08-04T11:03:09.923Z,30.112915
2022-08-04T11:06:35.201Z,30.082703
2022-08-04T11:10:00.518Z,30.223694
2022-08-04T11:13:30.194Z,30.415039
2022-08-04T11:16:54.097Z,30.42511
2022-08-04T11:20:34.387Z,30.394897
2022-08-04T11:23:44.810Z,30.374756
2022-08-04T11:27:10.137Z,30.394897
2022-08-04T11:30:35.482Z,30.606384
2022-08-04T11:34:00.828Z,30.747375
2022-08-04T11:37:26.262Z,30.948792
2022-08-04T11:40:55.951Z,31.039429
2022-08-04T11:44:16.873Z,31.089783
2022-08-04T11:47:42.255Z,31.069641
2022-08-04T11:51:07.619Z,30.989075
2022-08-04T11:54:33.012Z,31.009216
2022-08-04T11:57:58.358Z,31.089783
2022-08-04T12:01:23.677Z,31.099854
2022-08-04T12:04:49.017Z,31.099854
2022-08-04T12:08:14.354Z,31.009216
2022-08-04T12:11:39.745Z,30.948792
2022-08-04T12:15:05.079Z,31.009216
2022-08-04T12:18:30.457Z,31.119995
2022-08-04T12:21:56.830Z,31.130066
2022-08-04T12:25:21.139Z,31.230774
2022-08-04T12:29:08.917Z,31.31134
2022-08-04T12:32:11.927Z,31.361694
2022-08-04T12:35:37.495Z,31.31134
2022-08-04T12:39:05.071Z,31.200562
2022-08-04T12:42:31.208Z,31.099854
2022-08-04T12:45:56.941Z,31.019287
2022-08-04T12:49:23.296Z,31.069641
2022-08-04T12:53:01.329Z,31.140137
2022-08-04T12:56:14.161Z,31.130066
2022-08-04T12:59:39.602Z,31.170349
2022-08-04T13:03:18.247Z,31.210632
2022-08-04T13:06:43.703Z,31.281128
2022-08-04T13:10:09.075Z,31.230774
2022-08-04T13:13:34.482Z,31.099854
2022-08-04T13:16:59.992Z,31.019287
2022-08-04T13:20:25.418Z,30.989075
2022-08-04T13:24:11.148Z,30.817871
2022-08-04T13:27:16.688Z,30.646667
2022-08-04T13:30:41.802Z,30.636597
2022-08-04T13:34:07.251Z,30.717163
2022-08-04T13:37:32.669Z,30.797729
2022-08-04T13:40:58.056Z,30.817871
2022-08-04T13:44:23.494Z,30.918579
2022-08-04T13:47:48.952Z,30.938721
2022-08-04T13:51:14.320Z,30.948792
2022-08-04T13:54:42.534Z,31.039429
2022-08-04T13:58:05.226Z,31.140137
2022-08-04T14:01:35.428Z,31.230774
2022-08-04T14:04:56.028Z,31.190491
2022-08-04T14:08:21.380Z,31.230774
2022-08-04T14:12:04.863Z,31.170349
2022-08-04T14:15:12.290Z,31.281128
2022-08-04T14:18:37.682Z,31.361694
2022-08-04T14:22:03.055Z,31.321411
2022-08-04T14:25:30.381Z,31.291199
2022-08-04T14:29:08.669Z,31.260986
2022-08-04T15:04:57.209Z,30.989075
2022-08-04T15:08:22.543Z,30.968933
2022-08-04T15:11:47.887Z,30.979004
2022-08-04T15:15:34.435Z,30.989075
2022-08-04T15:18:38.946Z,30.979004
2022-08-04T15:22:03.899Z,30.878296
2022-08-04T15:25:29.227Z,30.948792
2022-08-04T15:28:54.579Z,30.858154
2022-08-04T15:32:20.020Z,30.817871
2022-08-04T15:35:45.254Z,30.747375
2022-08-04T15:39:14.967Z,30.636597
2022-08-04T15:42:40.243Z,30.566101
2022-08-04T15:46:42.032Z,30.566101
2022-08-04T15:49:30.929Z,30.505676
2022-08-04T15:53:00.835Z,30.485535
2022-08-04T15:56:21.633Z,30.485535
2022-08-04T15:59:46.982Z,30.596313
2022-08-04T16:03:12.436Z,30.576172
2022-08-04T16:06:37.826Z,30.505676
2022-08-04T16:10:03.185Z,30.394897
2022-08-04T16:13:28.529Z,30.314331
2022-08-04T16:16:53.870Z,30.203552
2022-08-04T16:20:19.852Z,30.05249
2022-08-04T16:23:53.891Z,29.92157
2022-08-04T16:27:10.545Z,29.851074
2022-08-04T16:30:35.888Z,29.851074
2022-08-04T16:34:03.938Z,29.80072
2022-08-04T16:37:26.620Z,29.740295
2022-08-04T16:40:52.014Z,29.6698
2022-08-04T16:44:30.601Z,29.629517
2022-08-04T16:47:42.730Z,29.599304
2022-08-04T16:51:08.075Z,29.569092
2022-08-04T16:54:33.436Z,29.579163
2022-08-04T16:57:58.780Z,29.569092
2022-08-04T17:01:32.822Z,29.518738
2022-08-04T17:04:49.477Z,29.448242
2022-08-04T17:08:30.602Z,29.357605
2022-08-04T17:11:40.150Z,29.327393
2022-08-04T17:15:05.539Z,29.266968
2022-08-04T17:18:30.876Z,29.206543
2022-08-04T17:22:00.609Z,29.136047
2022-08-04T17:25:21.696Z,29.115906
2022-08-04T17:28:47.864Z,29.085693
2022-08-04T17:32:12.509Z,29.015198
2022-08-04T17:35:38.665Z,28.954773
2022-08-04T17:39:03.464Z,28.894348
2022-08-04T17:42:28.842Z,28.813782
2022-08-04T17:45:56.729Z,28.803711
2022-08-04T17:49:19.556Z,28.743286
2022-08-04T17:52:45.707Z,28.672791
2022-08-04T17:56:10.323Z,28.582153
2022-08-04T17:59:52.092Z,28.441162
2022-08-04T18:03:01.137Z,28.360596
2022-08-04T18:06:26.524Z,28.249817
2022-08-04T18:09:57.486Z,28.139038
2022-08-04T18:13:17.381Z,28.058472
2022-08-04T18:16:42.817Z,27.967834
2022-08-04T18:20:08.211Z,27.877197
2022-08-04T18:23:33.758Z,27.776489
2022-08-04T18:26:59.025Z,27.66571
2022-08-04T18:30:34.143Z,27.554932
2022-08-04T18:38:10.761Z,27.28302
2022-08-04T18:40:53.358Z,27.182312
2022-08-04T18:44:08.422Z,27.03125
2022-08-04T18:47:54.669Z,26.769409
2022-08-04T18:51:11.674Z,26.497498
2022-08-04T18:54:32.615Z,26.245728
2022-08-04T18:57:59.922Z,26.014099
2022-08-04T19:01:29.833Z,25.802612
2022-08-04T19:04:49.423Z,25.701904
2022-08-04T19:08:34.092Z,25.550842
2022-08-04T19:11:54.829Z,25.379639
2022-08-04T19:15:08.343Z,25.198364
2022-08-04T19:18:33.798Z,24.996948
2022-08-04T19:22:02.381Z,24.845886
2022-08-04T19:25:59.777Z,24.725037
2022-08-04T19:28:49.875Z,24.725037
2022-08-04T19:32:16.187Z,24.714966
2022-08-04T19:35:46.252Z,24.674683
2022-08-04T19:39:09.331Z,24.64447
2022-08-04T19:42:31.194Z,24.533691
2022-08-04T19:45:56.590Z,24.473267
2022-08-04T19:50:03.612Z,24.402771
2022-08-04T19:52:49.278Z,24.3927
2022-08-04T19:56:12.855Z,24.342346
2022-08-04T19:59:38.214Z,24.312134
2022-08-04T20:03:03.606Z,24.302063
2022-08-04T20:06:28.959Z,24.271851
2022-08-04T20:09:54.357Z,24.251709
2022-08-04T20:13:19.802Z,24.181213
2022-08-04T20:16:45.121Z,24.151001
2022-08-04T20:20:10.589Z,24.151001
2022-08-04T20:23:47.981Z,24.151001
2022-08-04T20:27:04.803Z,24.100647
2022-08-04T20:30:28.384Z,24.080505
2022-08-04T20:33:53.976Z,24.060364
2022-08-04T20:37:17.779Z,24.030151
2022-08-04T20:40:43.201Z,24.030151
2022-08-04T20:44:10.725Z,23.999939
2022-08-04T20:47:35.329Z,23.979797
2022-08-04T20:50:59.207Z,23.979797
2022-08-04T20:54:26.716Z,23.949585
2022-08-04T20:57:51.376Z,23.939514
2022-08-04T21:01:15.226Z,23.979797
2022-08-04T21:04:45.361Z,23.848877
2022-08-04T21:08:05.818Z,23.879089
2022-08-04T21:11:32.549Z,23.869019
2022-08-04T21:14:56.487Z,23.879089
2022-08-04T21:18:29.300Z,23.848877
2022-08-04T21:21:47.127Z,23.838806
2022-08-04T21:25:15.819Z,23.788452
2022-08-04T21:28:37.755Z,23.748169
2022-08-04T21:32:03.113Z,23.607178
2022-08-04T21:35:30.101Z,23.476257
2022-08-04T21:38:53.797Z,23.345337
2022-08-04T21:42:28.555Z,23.305054
2022-08-04T21:45:44.411Z,23.153992
2022-08-04T21:49:09.723Z,23.023071
2022-08-04T21:52:35.078Z,22.912292
2022-08-04T21:56:05.411Z,22.902222
2022-08-04T21:59:30.323Z,22.831726
2022-08-04T22:02:53.080Z,22.851868
2022-08-04T22:06:17.374Z,22.861938
2022-08-04T22:09:42.010Z,22.851868
2022-08-04T22:13:07.958Z,22.861938
2022-08-04T22:16:32.666Z,22.902222
2022-08-04T22:20:01.909Z,22.88208
2022-08-04T22:23:24.153Z,22.851868
2022-08-04T22:26:48.617Z,22.831726
2022-08-04T22:30:16.972Z,22.831726
2022-08-04T22:33:54.225Z,22.831726
2022-08-04T22:37:12.497Z,22.861938
2022-08-04T22:40:29.944Z,22.851868
2022-08-04T22:43:55.292Z,22.791443
2022-08-04T22:47:23.536Z,22.75116
2022-08-04T22:50:45.900Z,22.670593
2022-08-04T22:54:12.526Z,22.620239
2022-08-04T22:57:43.162Z,22.610168
2022-08-04T23:01:01.886Z,22.600098
2022-08-04T23:04:27.194Z,22.50946
2022-08-04T23:07:52.477Z,22.469177
2022-08-04T23:11:17.816Z,22.459106
2022-08-04T23:14:43.120Z,22.398682
2022-08-04T23:18:08.411Z,22.348328
2022-08-04T23:21:40.777Z,22.267761
2022-08-04T23:24:59.069Z,22.207336
2022-08-04T23:28:24.397Z,22.167053
2022-08-04T23:31:59.284Z,22.096558
2022-08-04T23:35:15.320Z,22.086487
2022-08-04T23:38:40.411Z,22.056274
2022-08-04T23:42:05.726Z,22.015991
2022-08-04T23:46:03.846Z,21.975708
2022-08-04T23:48:56.351Z,21.875
2022-08-04T23:52:23.671Z,21.74408
2022-08-04T23:55:47.004Z,21.693726
2022-08-04T23:59:17.794Z,21.693726
